Time;durP1;ratioP1;P1;durP2;ratioP2;P2;SDS_P1;SDS_P2;PMS_P1;PMS_P2;Temp;Humidity;BMP_temperature;BMP_pressure;BME280_temperature;BME280_humidity;BME280_pressure;Samples;Min_cycle;Max_cycle;Signal;HPM_P1;HPM_P2
2023/07/14 00:00:08;;;;;;;;;;;;;;;29.75;60.26;99264.13;303471;32;5527;-79
2023/07/14 00:00:20;;;;;;;;;;;;;;;29.75;60.27;99258.75;302015;32;7645;-78
2023/07/14 00:00:31;;;;;;;;;;;;;;;29.75;60.50;99261.44;297319;33;6041;-78
2023/07/14 00:00:41;;;;;;;;;;;;;;;29.75;60.33;99254.19;294943;33;1292;-78
2023/07/14 00:00:51;;;;;;;;;;;;;;;29.75;60.49;99267.66;295584;33;4747;-78
2023/07/14 00:01:01;;;;;;;;;;;;;;;29.75;60.50;99256.88;292979;33;5864;-78
2023/07/14 00:01:16;;;;;;;;;;;;;;;29.75;60.28;99262.28;294085;33;933;-78
2023/07/14 00:01:26;;;;;;;;;;;;;;;29.76;60.10;99265.81;292177;33;831;-78
2023/07/14 00:01:38;;;;;;;;;;;;;;;29.76;60.02;99258.53;289052;33;5087;-79
2023/07/14 00:01:48;;;;;;;;;;;;;;;29.73;60.44;99258.94;289018;33;6086;-78
2023/07/14 00:01:58;;;;;;;;;;;;;;;29.72;60.23;99261.81;290543;33;7124;-78
2023/07/14 00:02:10;;;;;;;;;;;;;;;29.72;60.62;99264.53;291177;34;807;-79
2023/07/14 00:02:20;;;;;;;;;;;;;;;29.71;60.48;99265.56;289926;33;9383;-78
2023/07/14 00:02:31;;;;;;;;;;;;;;;29.71;60.36;99265.56;287198;33;10992;-78
2023/07/14 00:02:41;;;;;;;;;;;;;;;29.69;60.58;99271.13;287524;34;1215;-78
2023/07/14 00:05:05;;;;;;;;;;;;;;;29.70;60.75;99263.88;2498365;27;19933;-77
2023/07/14 00:05:17;;;;;;;;;;;;;;;29.69;60.88;99260.34;356541;27;1029;-77
2023/07/14 00:05:32;;;;;;;;;;;;;;;29.70;60.88;99263.88;354533;27;1241;-78
2023/07/14 00:05:43;;;;;;;;;;;;;;;29.70;60.48;99263.88;353175;28;1384;-77
2023/07/14 00:05:53;;;;;;;;;;;;;;;29.69;60.68;99265.75;351726;28;1381;-77
2023/07/14 00:06:03;;;;;;;;;;;;;;;29.68;60.68;99265.94;350271;28;1340;-77
2023/07/14 00:06:14;;;;;;;;;;;;;;;29.66;61.08;99262.59;346469;28;1415;-78
2023/07/14 00:06:26;;;;;;;;;;;;;;;29.65;61.01;99258.22;348850;28;1360;-77
2023/07/14 00:06:36;;;;;;;;;;;;;;;29.65;60.56;99258.22;347659;28;840;-78
2023/07/14 00:06:46;;;;;;;;;;;;;;;29.67;61.08;99259.72;347608;28;848;-78
2023/07/14 00:06:56;;;;;;;;;;;;;;;29.67;60.86;99266.97;348730;28;1374;-78
2023/07/14 00:07:09;;;;;;;;;;;;;;;29.66;60.85;99263.44;347680;28;805;-78
2023/07/14 00:07:39;;;;;;;;;;;;;;;29.66;60.88;99257.19;347430;28;1028;-79
2023/07/14 00:07:50;;;;;;;;;;;;;;;29.67;61.25;99261.56;346218;28;1195;-77
2023/07/14 00:08:01;;;;;;;;;;;;;;;29.67;61.26;99269.66;343687;28;1054;-78
2023/07/14 00:08:14;;;;;;;;;;;;;;;29.65;61.03;99252.84;343394;28;1205;-77
2023/07/14 00:08:30;;;;;;;;;;;;;;;29.65;60.86;99258.22;346246;28;828;-77
2023/07/14 00:08:40;;;;;;;;;;;;;;;29.64;60.97;99259.25;345916;28;1251;-78
2023/07/14 00:08:51;;;;;;;;;;;;;;;29.64;61.19;99257.41;344577;28;1240;-78
2023/07/14 00:09:01;;;;;;;;;;;;;;;29.64;60.62;99264.66;347134;28;893;-79
2023/07/14 00:09:13;;;;;;;;;;;;;;;29.67;60.65;99264.28;346521;28;1170;-78
2023/07/14 00:09:25;;;;;;;;;;;;;;;29.66;60.77;99257.19;345828;28;1469;-79
2023/07/14 00:09:35;;;;;;;;;;;;;;;29.67;60.53;99258.88;347582;28;933;-78
2023/07/14 00:09:46;;;;;;;;;;;;;;;29.66;61.32;99259.91;346854;28;925;-77
2023/07/14 00:09:56;;;;;;;;;;;;;;;29.67;61.38;99264.28;347077;28;2382;-78
2023/07/14 00:10:30;;;;;;;;;;;;;;;29.62;60.98;99250.53;347367;28;1249;-78
2023/07/14 00:10:41;;;;;;;;;;;;;;;29.59;61.08;99256.31;347478;28;875;-78
2023/07/14 00:10:51;;;;;;;;;;;;;;;29.58;61.44;99251.94;343303;28;1415;-77
2023/07/14 00:11:01;;;;;;;;;;;;;;;29.59;60.99;99250.91;346980;28;1227;-77
2023/07/14 00:11:12;;;;;;;;;;;;;;;29.58;60.92;99255.47;347768;28;1211;-77
2023/07/14 00:11:23;;;;;;;;;;;;;;;29.59;61.18;99257.13;347581;28;1690;-77
2023/07/14 00:11:33;;;;;;;;;;;;;;;29.60;61.06;99255.28;345848;28;872;-77
2023/07/14 00:11:43;;;;;;;;;;;;;;;29.60;60.96;99257.97;346005;28;1317;-77
2023/07/14 00:11:54;;;;;;;;;;;;;;;29.59;61.39;99257.13;345913;28;1193;-77
2023/07/14 00:12:04;;;;;;;;;;;;;;;29.60;60.67;99257.97;344532;28;1275;-78
2023/07/14 00:12:14;;;;;;;;;;;;;;;29.59;60.74;99257.13;344639;28;1189;-79
2023/07/14 00:12:25;;;;;;;;;;;;;;;29.59;61.50;99264.41;344599;28;975;-78
2023/07/14 00:12:35;;;;;;;;;;;;;;;29.59;60.94;99261.69;345671;28;1216;-78
2023/07/14 00:12:46;;;;;;;;;;;;;;;29.59;61.02;99256.31;343710;28;845;-78
2023/07/14 00:12:56;;;;;;;;;;;;;;;29.59;60.90;99257.13;346003;28;1207;-78
2023/07/14 00:13:09;;;;;;;;;;;;;;;29.60;61.57;99257.97;343571;28;1316;-77
2023/07/14 00:13:20;;;;;;;;;;;;;;;29.60;60.91;99263.38;341946;28;1275;-77
2023/07/14 00:13:30;;;;;;;;;;;;;;;29.59;60.77;99259.00;342482;28;1176;-78
2023/07/14 00:13:40;;;;;;;;;;;;;;;29.58;61.35;99266.25;339647;28;1222;-78
2023/07/14 00:13:51;;;;;;;;;;;;;;;29.58;61.19;99258.16;343238;28;1206;-79
2023/07/14 00:14:01;;;;;;;;;;;;;;;29.59;61.29;99259.00;342248;28;1672;-79
2023/07/14 00:14:11;;;;;;;;;;;;;;;29.58;60.71;99260.03;340035;28;1293;-79
2023/07/14 00:14:22;;;;;;;;;;;;;;;29.58;61.27;99266.25;341060;28;1218;-78
2023/07/14 00:14:32;;;;;;;;;;;;;;;29.59;60.65;99265.22;341925;28;1337;-79
2023/07/14 00:14:42;;;;;;;;;;;;;;;29.59;61.29;99259.00;338075;29;2806;-78
2023/07/14 00:14:53;;;;;;;;;;;;;;;29.57;61.43;99261.88;338319;29;1301;-78
2023/07/14 00:15:04;;;;;;;;;;;;;;;29.59;61.57;99261.69;338209;29;1493;-79
2023/07/14 00:15:14;;;;;;;;;;;;;;;29.59;61.59;99267.09;335931;29;1422;-78
2023/07/14 00:15:25;;;;;;;;;;;;;;;29.58;61.56;99260.03;333440;29;1758;-79
2023/07/14 00:15:36;;;;;;;;;;;;;;;29.58;61.72;99254.63;337751;29;850;-78
2023/07/14 00:15:46;;;;;;;;;;;;;;;29.57;61.60;99258.34;337681;29;1329;-77
2023/07/14 00:15:56;;;;;;;;;;;;;;;29.54;61.46;99259.56;335307;29;1293;-77
2023/07/14 00:16:14;;;;;;;;;;;;;;;29.53;61.40;99251.69;335528;29;1281;-78
2023/07/14 00:16:26;;;;;;;;;;;;;;;29.51;61.24;99259.13;330430;29;1250;-78
2023/07/14 00:16:36;;;;;;;;;;;;;;;29.48;61.71;99259.50;328950;30;1319;-78
2023/07/14 00:16:47;;;;;;;;;;;;;;;29.45;61.19;99263.47;331560;29;1353;-78
2023/07/14 00:16:57;;;;;;;;;;;;;;;29.43;61.30;99258.25;331154;29;960;-79
2023/07/14 00:17:10;;;;;;;;;;;;;;;29.43;61.50;99263.66;333018;29;1210;-76
2023/07/14 00:17:21;;;;;;;;;;;;;;;29.42;61.44;99256.59;331564;29;1342;-76
2023/07/14 00:17:31;;;;;;;;;;;;;;;29.43;61.52;99255.56;330381;29;2025;-78
2023/07/14 00:17:41;;;;;;;;;;;;;;;29.43;62.06;99258.25;332139;29;2199;-77
2023/07/14 00:17:53;;;;;;;;;;;;;;;29.45;61.62;99256.19;326659;30;1348;-76
2023/07/14 00:18:29;;;;;;;;;;;;;;;29.46;61.94;99262.41;328593;29;2073;-76
2023/07/14 00:18:39;;;;;;;;;;;;;;;29.46;61.89;99254.31;327936;30;1663;-77
2023/07/14 00:18:50;;;;;;;;;;;;;;;29.46;61.85;99257.84;326888;30;793;-77
2023/07/14 00:19:01;;;;;;;;;;;;;;;29.46;61.83;99263.25;325593;30;1207;-77
2023/07/14 00:19:16;;;;;;;;;;;;;;;29.47;61.35;99264.06;324866;30;1687;-77
2023/07/14 00:19:26;;;;;;;;;;;;;;;29.48;61.75;99259.50;322963;30;2109;-78
2023/07/14 00:19:36;;;;;;;;;;;;;;;29.48;61.17;99260.34;324430;30;884;-78
2023/07/14 00:19:46;;;;;;;;;;;;;;;29.49;61.27;99258.47;320843;30;2565;-78
2023/07/14 00:19:58;;;;;;;;;;;;;;;29.50;61.72;99263.69;318920;30;2897;-78
2023/07/14 00:20:16;;;;;;;;;;;;;;;29.51;61.59;99259.13;320773;30;841;-78
2023/07/14 00:20:28;;;;;;;;;;;;;;;29.50;61.27;99262.84;317528;31;2612;-78
2023/07/14 00:20:38;;;;;;;;;;;;;;;29.49;61.45;99261.19;316314;31;924;-78
2023/07/14 00:20:48;;;;;;;;;;;;;;;29.47;61.84;99253.28;315677;31;2547;-78
2023/07/14 00:20:59;;;;;;;;;;;;;;;29.49;61.52;99266.56;313741;31;1834;-78
2023/07/14 00:21:21;;;;;;;;;;;;;;;29.48;61.47;99252.25;312335;31;1943;-78
2023/07/14 00:21:31;;;;;;;;;;;;;;;29.48;61.40;99264.91;314760;31;2406;-78
2023/07/14 00:21:41;;;;;;;;;;;;;;;29.46;61.24;99252.44;312889;31;2719;-77
2023/07/14 00:21:52;;;;;;;;;;;;;;;29.48;61.35;99259.50;312729;31;1285;-77
2023/07/14 00:22:03;;;;;;;;;;;;;;;29.46;61.63;99257.84;307821;31;3291;-77
2023/07/14 00:22:14;;;;;;;;;;;;;;;29.44;61.54;99256.41;308068;31;3796;-77
2023/07/14 00:22:25;;;;;;;;;;;;;;;29.43;62.02;99258.25;308687;31;3688;-77
2023/07/14 00:22:35;;;;;;;;;;;;;;;29.43;61.97;99255.56;310697;31;951;-77
2023/07/14 00:22:45;;;;;;;;;;;;;;;29.43;62.07;99255.56;305897;31;3936;-78
2023/07/14 00:22:57;;;;;;;;;;;;;;;29.42;62.10;99261.97;302699;32;3214;-78
2023/07/14 00:23:11;;;;;;;;;;;;;;;29.43;61.88;99254.72;305190;32;1332;-78
2023/07/14 00:23:22;;;;;;;;;;;;;;;29.44;61.73;99253.69;301411;32;1263;-77
2023/07/14 00:23:32;;;;;;;;;;;;;;;29.45;62.19;99260.75;302978;32;2799;-78
2023/07/14 00:23:43;;;;;;;;;;;;;;;29.45;62.52;99255.38;302199;32;3637;-77
2023/07/14 00:23:56;;;;;;;;;;;;;;;29.45;61.64;99255.38;301927;32;1995;-77
2023/07/14 00:24:09;;;;;;;;;;;;;;;29.47;61.85;99253.28;303009;32;892;-78
2023/07/14 00:24:20;;;;;;;;;;;;;;;29.48;61.89;99260.34;299984;32;4364;-78
2023/07/14 00:24:32;;;;;;;;;;;;;;;29.48;61.69;99252.25;298013;32;5006;-78
2023/07/14 00:24:43;;;;;;;;;;;;;;;29.48;61.88;99249.56;297681;33;4912;-77
2023/07/14 00:24:53;;;;;;;;;;;;;;;29.49;61.97;99253.09;297944;33;1172;-77
2023/07/14 00:25:04;;;;;;;;;;;;;;;29.48;62.13;99254.13;294281;33;4781;-77
2023/07/14 00:25:15;;;;;;;;;;;;;;;29.46;61.55;99252.44;293916;33;4752;-77
2023/07/14 00:25:25;;;;;;;;;;;;;;;29.44;61.81;99249.13;293425;33;3473;-77
2023/07/14 00:25:36;;;;;;;;;;;;;;;29.43;61.95;99246.63;290875;34;1442;-78
2023/07/14 00:25:46;;;;;;;;;;;;;;;29.43;62.06;99252.88;291394;33;4245;-78
2023/07/14 00:25:56;;;;;;;;;;;;;;;29.41;62.14;99252.22;289757;33;6330;-77
2023/07/14 00:26:19;;;;;;;;;;;;;;;29.41;62.17;99254.09;287318;34;1260;-77
2023/07/14 00:26:30;;;;;;;;;;;;;;;29.39;61.79;99251.53;283038;34;6369;-78
2023/07/14 00:26:40;;;;;;;;;;;;;;;29.39;61.80;99251.53;282918;34;7827;-78
2023/07/14 00:26:55;;;;;;;;;;;;;;;29.39;61.91;99250.72;281884;35;897;-78
2023/07/14 00:27:08;;;;;;;;;;;;;;;29.40;62.41;99247.81;279979;35;862;-77
2023/07/14 00:29:18;;;;;;;;;;;;;;;29.41;62.06;99244.13;2502779;27;20009;-77
2023/07/14 00:29:31;;;;;;;;;;;;;;;29.38;62.57;99239.09;357405;27;929;-77
2023/07/14 00:29:42;;;;;;;;;;;;;;;29.37;62.58;99244.66;354324;27;1340;-77
2023/07/14 00:29:52;;;;;;;;;;;;;;;29.34;62.56;99245.88;354679;27;862;-77
2023/07/14 00:30:03;;;;;;;;;;;;;;;29.34;62.65;99242.34;352999;28;788;-77
2023/07/14 00:30:21;;;;;;;;;;;;;;;29.33;62.09;99241.53;350249;28;1421;-77
2023/07/14 00:30:31;;;;;;;;;;;;;;;29.30;62.43;99241.91;350123;28;1298;-77
2023/07/14 00:30:41;;;;;;;;;;;;;;;29.30;62.55;99231.13;350307;28;848;-78
2023/07/14 00:30:51;;;;;;;;;;;;;;;29.30;62.53;99238.38;350258;28;864;-78
2023/07/14 00:31:03;;;;;;;;;;;;;;;29.30;62.80;99239.22;348962;28;1305;-78
2023/07/14 00:31:14;;;;;;;;;;;;;;;29.30;62.58;99243.78;351211;28;772;-78
2023/07/14 00:31:24;;;;;;;;;;;;;;;29.29;62.40;99240.25;350315;28;1451;-78
2023/07/14 00:31:34;;;;;;;;;;;;;;;29.30;62.72;99241.06;350379;28;1382;-77
2023/07/14 00:31:45;;;;;;;;;;;;;;;29.29;62.37;99239.41;350357;28;820;-77
2023/07/14 00:31:55;;;;;;;;;;;;;;;29.28;62.93;99237.72;350392;28;1243;-77
2023/07/14 00:32:12;;;;;;;;;;;;;;;29.28;62.52;99238.56;351541;28;1309;-77
2023/07/14 00:32:22;;;;;;;;;;;;;;;29.27;62.33;99236.91;350412;28;772;-79
2023/07/14 00:32:33;;;;;;;;;;;;;;;29.27;62.41;99238.75;350189;28;1342;-78
2023/07/14 00:32:43;;;;;;;;;;;;;;;29.27;62.04;99246.84;350400;28;801;-77
2023/07/14 00:32:54;;;;;;;;;;;;;;;29.27;62.68;99250.38;347416;28;1196;-77
2023/07/14 00:33:05;;;;;;;;;;;;;;;29.26;62.26;99237.94;348673;28;1426;-77
2023/07/14 00:33:16;;;;;;;;;;;;;;;29.26;62.53;99246.00;347340;28;1299;-77
2023/07/14 00:33:26;;;;;;;;;;;;;;;29.26;62.80;99246.00;347293;28;1252;-77
2023/07/14 00:33:36;;;;;;;;;;;;;;;29.25;62.89;99241.66;348853;28;1305;-77
2023/07/14 00:33:47;;;;;;;;;;;;;;;29.25;62.21;99241.66;348861;28;938;-77
2023/07/14 00:33:58;;;;;;;;;;;;;;;29.26;63.01;99237.94;349885;28;1465;-77
2023/07/14 00:34:08;;;;;;;;;;;;;;;29.27;62.84;99236.91;349128;28;1214;-77
2023/07/14 00:34:18;;;;;;;;;;;;;;;29.26;62.80;99232.53;349070;28;1200;-77
2023/07/14 00:34:29;;;;;;;;;;;;;;;29.28;62.96;99240.44;346183;28;1311;-77
2023/07/14 00:34:39;;;;;;;;;;;;;;;29.27;62.83;99236.91;345899;28;1212;-78
2023/07/14 00:34:50;;;;;;;;;;;;;;;29.26;62.32;99235.22;344743;28;1338;-78
2023/07/14 00:35:00;;;;;;;;;;;;;;;29.27;62.68;99236.91;346112;28;888;-78
2023/07/14 00:35:20;;;;;;;;;;;;;;;29.27;62.51;99244.97;346755;28;988;-78
2023/07/14 00:35:31;;;;;;;;;;;;;;;29.29;62.19;99237.53;346978;28;1207;-78
2023/07/14 00:35:41;;;;;;;;;;;;;;;29.29;62.65;99240.25;345958;28;1311;-78
2023/07/14 00:35:52;;;;;;;;;;;;;;;29.28;62.53;99233.19;344550;28;1183;-78
2023/07/14 00:36:02;;;;;;;;;;;;;;;29.29;62.66;99240.25;343302;28;1330;-78
2023/07/14 00:36:12;;;;;;;;;;;;;;;29.29;62.26;99239.41;342886;28;1189;-78
2023/07/14 00:36:23;;;;;;;;;;;;;;;29.28;62.02;99227.78;344747;28;1400;-78
2023/07/14 00:36:34;;;;;;;;;;;;;;;29.29;61.89;99234.84;344905;28;1241;-78
2023/07/14 00:36:44;;;;;;;;;;;;;;;29.30;62.06;99241.06;344505;28;1301;-78
2023/07/14 00:36:54;;;;;;;;;;;;;;;29.29;62.61;99234.84;341825;28;1251;-78
2023/07/14 00:37:05;;;;;;;;;;;;;;;29.29;62.00;99240.25;339539;29;1417;-78
2023/07/14 00:37:15;;;;;;;;;;;;;;;29.30;62.56;99238.38;340691;28;1341;-78
2023/07/14 00:37:25;;;;;;;;;;;;;;;29.29;62.42;99237.53;340432;28;1258;-78
2023/07/14 00:37:35;;;;;;;;;;;;;;;29.29;62.49;99237.53;341991;28;1321;-78
2023/07/14 00:37:47;;;;;;;;;;;;;;;29.29;62.48;99240.25;343217;28;1193;-78
2023/07/14 00:37:59;;;;;;;;;;;;;;;29.29;61.77;99237.53;340537;28;1529;-78
2023/07/14 00:38:09;;;;;;;;;;;;;;;29.28;62.04;99238.56;340338;28;1552;-78
2023/07/14 00:38:19;;;;;;;;;;;;;;;29.30;62.32;99236.50;339495;29;1375;-77
2023/07/14 00:38:30;;;;;;;;;;;;;;;29.29;62.62;99232.16;339124;29;1330;-78
2023/07/14 00:38:40;;;;;;;;;;;;;;;29.28;62.13;99233.19;338982;29;1579;-78
2023/07/14 00:38:50;;;;;;;;;;;;;;;29.29;62.52;99239.41;338225;29;1247;-78
2023/07/14 00:39:00;;;;;;;;;;;;;;;29.28;62.19;99232.34;340583;28;1444;-78
2023/07/14 00:39:11;;;;;;;;;;;;;;;29.28;62.76;99233.19;341765;28;1467;-78
2023/07/14 00:39:21;;;;;;;;;;;;;;;29.29;62.15;99234.84;339441;29;1231;-78
2023/07/14 00:39:31;;;;;;;;;;;;;;;29.29;62.26;99240.25;333456;29;1179;-78
2023/07/14 00:39:41;;;;;;;;;;;;;;;29.29;62.79;99242.94;333973;29;2001;-77
2023/07/14 00:39:51;;;;;;;;;;;;;;;29.26;62.14;99229.84;330213;29;2018;-77
2023/07/14 00:40:03;;;;;;;;;;;;;;;29.26;62.26;99239.78;330642;29;2311;-78
2023/07/14 00:40:17;;;;;;;;;;;;;;;29.24;62.90;99231.06;334934;29;2052;-78
2023/07/14 00:40:36;;;;;;;;;;;;;;;29.23;62.68;99230.22;336505;29;1680;-78
2023/07/14 00:40:47;;;;;;;;;;;;;;;29.22;62.48;99230.41;336898;29;859;-76
2023/07/14 00:40:57;;;;;;;;;;;;;;;29.21;62.92;99229.56;334990;29;1473;-76
2023/07/14 00:41:11;;;;;;;;;;;;;;;29.21;63.02;99237.66;337608;29;1645;-75
2023/07/14 00:41:22;;;;;;;;;;;;;;;29.21;63.02;99232.28;335606;29;842;-78
2023/07/14 00:41:32;;;;;;;;;;;;;;;29.19;63.03;99234.31;329407;30;1382;-78
2023/07/14 00:41:43;;;;;;;;;;;;;;;29.19;62.54;99234.31;327449;29;2244;-77
2023/07/14 00:41:53;;;;;;;;;;;;;;;29.18;63.02;99235.34;324207;29;2695;-77
2023/07/14 00:42:07;;;;;;;;;;;;;;;29.18;63.09;99232.66;327143;30;2610;-78
2023/07/14 00:42:17;;;;;;;;;;;;;;;29.15;63.12;99235.72;328927;30;1291;-77
2023/07/14 00:42:27;;;;;;;;;;;;;;;29.16;62.74;99234.69;325086;30;2539;-77
2023/07/14 00:42:39;;;;;;;;;;;;;;;29.14;63.08;99223.28;319303;30;1820;-77
2023/07/14 00:42:51;;;;;;;;;;;;;;;29.13;62.82;99240.47;316350;31;888;-77
2023/07/14 00:43:02;;;;;;;;;;;;;;;29.12;63.43;99233.41;318545;30;1324;-77
2023/07/14 00:43:20;;;;;;;;;;;;;;;29.09;62.96;99239.19;320590;30;2118;-77
2023/07/14 00:43:30;;;;;;;;;;;;;;;29.08;63.31;99238.34;319168;30;2657;-78
2023/07/14 00:43:40;;;;;;;;;;;;;;;29.08;62.97;99226.72;318197;30;2320;-77
2023/07/14 00:43:51;;;;;;;;;;;;;;;29.08;62.97;99234.81;317451;31;854;-77
2023/07/14 00:44:01;;;;;;;;;;;;;;;29.10;63.21;99227.38;315445;31;2866;-77
2023/07/14 00:44:12;;;;;;;;;;;;;;;29.10;62.61;99232.75;314039;31;3276;-77
2023/07/14 00:44:23;;;;;;;;;;;;;;;29.12;63.07;99234.25;309459;31;2992;-76
2023/07/14 00:44:36;;;;;;;;;;;;;;;29.14;63.21;99232.19;309462;31;1478;-77
2023/07/14 00:44:55;;;;;;;;;;;;;;;29.15;63.37;99233.03;306175;32;3410;-77
2023/07/14 00:45:09;;;;;;;;;;;;;;;29.16;62.61;99228.47;303134;32;1213;-77
2023/07/14 00:45:22;;;;;;;;;;;;;;;29.11;62.76;99235.28;304156;32;868;-78
2023/07/14 00:45:32;;;;;;;;;;;;;;;29.07;63.19;99228.59;303838;32;1185;-78
2023/07/14 00:45:43;;;;;;;;;;;;;;;29.06;63.23;99224.22;303187;32;3753;-78
2023/07/14 00:45:54;;;;;;;;;;;;;;;29.06;63.18;99221.53;300725;32;3483;-78
2023/07/14 00:46:04;;;;;;;;;;;;;;;29.07;63.64;99230.44;302112;32;1269;-78
2023/07/14 00:46:23;;;;;;;;;;;;;;;29.07;63.42;99227.75;299530;32;4772;-78
2023/07/14 00:46:33;;;;;;;;;;;;;;;29.08;63.10;99221.34;300135;32;829;-79
2023/07/14 00:46:44;;;;;;;;;;;;;;;29.10;63.46;99224.69;296291;33;4050;-78
2023/07/14 00:46:54;;;;;;;;;;;;;;;29.10;63.14;99228.22;294734;33;4437;-78
2023/07/14 00:47:05;;;;;;;;;;;;;;;29.12;63.32;99222.63;295941;33;1309;-78
2023/07/14 00:47:22;;;;;;;;;;;;;;;29.12;63.29;99222.63;297115;33;3647;-78
2023/07/14 00:47:32;;;;;;;;;;;;;;;29.13;63.21;99229.69;294084;33;1418;-78
2023/07/14 00:47:43;;;;;;;;;;;;;;;29.14;62.48;99229.50;291559;33;4327;-78
2023/07/14 00:47:55;;;;;;;;;;;;;;;29.14;62.39;99232.19;287958;33;5846;-78
2023/07/14 00:48:05;;;;;;;;;;;;;;;29.14;62.79;99225.97;288058;34;1931;-78
2023/07/14 00:48:17;;;;;;;;;;;;;;;29.14;63.04;99231.38;282603;34;6351;-78
2023/07/14 00:48:28;;;;;;;;;;;;;;;29.13;62.50;99214.34;286541;33;5964;-79
2023/07/14 00:48:38;;;;;;;;;;;;;;;29.12;62.52;99228.03;289430;34;6768;-78
2023/07/14 00:48:48;;;;;;;;;;;;;;;29.12;62.94;99228.84;290173;34;890;-78
2023/07/14 00:49:04;;;;;;;;;;;;;;;29.11;62.51;99220.97;290137;33;5557;-78
2023/07/14 00:49:32;;;;;;;;;;;;;;;29.11;63.08;99227.19;286800;34;6076;-78
2023/07/14 00:49:42;;;;;;;;;;;;;;;29.13;62.78;99221.59;281023;34;5184;-78
2023/07/14 00:49:52;;;;;;;;;;;;;;;29.13;62.78;99221.59;280142;34;7570;-78
2023/07/14 00:50:03;;;;;;;;;;;;;;;29.12;62.87;99223.47;282594;35;1223;-78
2023/07/14 00:52:10;;;;;;;;;;;;;;;29.05;63.01;99227.09;2502467;27;20011;-77
2023/07/14 00:52:31;;;;;;;;;;;;;;;29.05;63.18;99227.09;350192;28;1256;-78
2023/07/14 00:52:48;;;;;;;;;;;;;;;29.04;63.09;99220.03;348198;28;1246;-77
2023/07/14 00:52:59;;;;;;;;;;;;;;;29.04;63.29;99228.97;344906;28;1366;-79
2023/07/14 00:53:14;;;;;;;;;;;;;;;29.03;62.88;99226.47;347594;28;1355;-78
2023/07/14 00:53:37;;;;;;;;;;;;;;;29.03;62.93;99223.78;347636;28;778;-78
2023/07/14 00:53:51;;;;;;;;;;;;;;;29.03;62.90;99224.59;348024;28;994;-78
2023/07/14 00:54:02;;;;;;;;;;;;;;;29.05;63.00;99227.09;344871;28;1359;-78
2023/07/14 00:54:49;;;;;;;;;;;;;;;29.06;63.20;99228.78;345939;28;1207;-78
2023/07/14 00:55:00;;;;;;;;;;;;;;;29.08;63.22;99226.72;346011;28;932;-78
2023/07/14 00:55:29;;;;;;;;;;;;;;;29.08;62.77;99235.66;348730;28;1411;-78
2023/07/14 00:55:40;;;;;;;;;;;;;;;29.06;63.07;99228.78;348586;28;1118;-79
2023/07/14 00:55:53;;;;;;;;;;;;;;;29.07;62.84;99230.44;347903;28;1225;-78
2023/07/14 00:56:09;;;;;;;;;;;;;;;29.06;63.26;99232.31;349500;28;1341;-79
2023/07/14 00:56:35;;;;;;;;;;;;;;;29.05;63.49;99227.09;350113;28;865;-78
2023/07/14 00:56:47;;;;;;;;;;;;;;;29.06;62.80;99228.78;348907;28;773;-77
2023/07/14 00:56:57;;;;;;;;;;;;;;;29.07;63.28;99225.06;347259;28;1159;-77
2023/07/14 00:57:15;;;;;;;;;;;;;;;29.07;63.44;99225.06;347565;28;887;-79
2023/07/14 00:57:27;;;;;;;;;;;;;;;29.05;63.46;99227.09;346055;28;1326;-79
2023/07/14 00:57:38;;;;;;;;;;;;;;;29.05;63.42;99224.41;345275;28;1441;-77
2023/07/14 00:57:49;;;;;;;;;;;;;;;29.04;63.10;99226.28;347284;28;907;-77
2023/07/14 00:58:00;;;;;;;;;;;;;;;29.05;63.42;99222.56;346382;28;1585;-79
2023/07/14 00:58:17;;;;;;;;;;;;;;;29.06;63.24;99223.38;346885;28;1199;-78
2023/07/14 00:58:28;;;;;;;;;;;;;;;29.07;62.75;99220.50;347192;28;1335;-77
2023/07/14 00:58:39;;;;;;;;;;;;;;;29.07;62.71;99223.19;343682;28;1287;-76
2023/07/14 00:58:49;;;;;;;;;;;;;;;29.08;62.79;99229.44;342195;28;1427;-77
2023/07/14 00:58:59;;;;;;;;;;;;;;;29.09;63.00;99223.00;346010;28;1013;-77
2023/07/14 00:59:11;;;;;;;;;;;;;;;29.08;62.81;99222.16;346132;28;781;-77
2023/07/14 00:59:21;;;;;;;;;;;;;;;29.08;63.22;99221.34;350177;28;1416;-77
2023/07/14 00:59:33;;;;;;;;;;;;;;;29.08;62.80;99226.72;347460;28;797;-78
2023/07/14 00:59:43;;;;;;;;;;;;;;;29.09;62.78;99223.00;343214;28;1476;-78
2023/07/14 00:59:54;;;;;;;;;;;;;;;29.07;62.75;99222.38;345093;28;1218;-78
2023/07/14 01:00:15;;;;;;;;;;;;;;;29.06;63.15;99228.78;346444;28;1441;-77
2023/07/14 01:00:27;;;;;;;;;;;;;;;29.05;62.51;99221.72;343803;28;944;-79
2023/07/14 01:00:37;;;;;;;;;;;;;;;29.05;62.64;99227.09;341866;28;1502;-77
2023/07/14 01:01:08;;;;;;;;;;;;;;;29.04;62.47;99226.28;340616;28;1477;-78
2023/07/14 01:01:21;;;;;;;;;;;;;;;29.02;62.99;99222.97;336623;29;1251;-79
2023/07/14 01:01:32;;;;;;;;;;;;;;;28.99;63.24;99223.34;336788;29;1379;-78
2023/07/14 01:02:01;;;;;;;;;;;;;;;29.00;62.77;99229.56;340572;29;1276;-78
2023/07/14 01:02:15;;;;;;;;;;;;;;;29.01;63.21;99228.53;338533;29;1672;-79
2023/07/14 01:02:25;;;;;;;;;;;;;;;29.01;62.72;99228.53;337476;29;1844;-78
2023/07/14 01:02:35;;;;;;;;;;;;;;;29.01;62.95;99220.47;336741;29;1719;-78
2023/07/14 01:02:45;;;;;;;;;;;;;;;29.00;63.17;99224.19;334091;29;1403;-78
2023/07/14 01:02:56;;;;;;;;;;;;;;;28.99;62.95;99217.97;334837;29;2103;-78
2023/07/14 01:03:12;;;;;;;;;;;;;;;28.98;63.62;99228.94;333941;29;1486;-78
2023/07/14 01:03:22;;;;;;;;;;;;;;;28.95;63.20;99226.59;335775;29;1544;-78
2023/07/14 01:03:35;;;;;;;;;;;;;;;28.94;63.20;99222.25;335521;29;1294;-77
2023/07/14 01:03:45;;;;;;;;;;;;;;;28.94;63.52;99227.63;334180;29;1046;-77
2023/07/14 01:03:56;;;;;;;;;;;;;;;28.95;63.43;99223.91;334064;29;1486;-78
2023/07/14 01:04:06;;;;;;;;;;;;;;;28.96;63.34;99233.66;332249;29;1910;-78
2023/07/14 01:04:16;;;;;;;;;;;;;;;28.96;63.63;99233.66;333005;29;1418;-78
2023/07/14 01:04:28;;;;;;;;;;;;;;;28.96;63.61;99225.59;330399;29;2174;-77
2023/07/14 01:04:42;;;;;;;;;;;;;;;28.97;63.56;99229.94;331139;29;2084;-78
2023/07/14 01:04:53;;;;;;;;;;;;;;;28.96;63.24;99231.81;331161;29;1772;-77
2023/07/14 01:05:04;;;;;;;;;;;;;;;28.96;63.35;99225.59;327679;29;2293;-77
2023/07/14 01:05:14;;;;;;;;;;;;;;;28.96;63.52;99228.28;331746;29;818;-77
2023/07/14 01:05:24;;;;;;;;;;;;;;;28.97;62.90;99220.00;333136;29;1823;-78
2023/07/14 01:05:35;;;;;;;;;;;;;;;28.97;62.85;99227.25;331744;29;1421;-78
2023/07/14 01:05:45;;;;;;;;;;;;;;;28.97;63.10;99229.94;331641;29;1413;-78
2023/07/14 01:05:56;;;;;;;;;;;;;;;28.98;63.20;99226.22;329828;29;1222;-78
2023/07/14 01:06:24;;;;;;;;;;;;;;;28.97;62.72;99230.78;326825;29;1948;-78
2023/07/14 01:06:36;;;;;;;;;;;;;;;28.99;63.44;99233.28;325811;30;2706;-78
2023/07/14 01:06:47;;;;;;;;;;;;;;;28.98;63.13;99220.84;324266;30;1299;-78
2023/07/14 01:06:58;;;;;;;;;;;;;;;28.96;62.77;99234.50;327154;30;3445;-78
2023/07/14 01:07:08;;;;;;;;;;;;;;;28.93;63.03;99228.66;326717;30;2366;-78
2023/07/14 01:07:21;;;;;;;;;;;;;;;28.90;63.52;99227.19;325224;30;2928;-77
2023/07/14 01:07:33;;;;;;;;;;;;;;;28.89;63.09;99238.13;324950;30;1043;-78
2023/07/14 01:07:44;;;;;;;;;;;;;;;28.89;63.13;99232.75;324382;30;1247;-78
2023/07/14 01:07:54;;;;;;;;;;;;;;;28.89;63.00;99233.59;324091;30;1202;-78
2023/07/14 01:08:04;;;;;;;;;;;;;;;28.90;63.11;99229.03;323959;30;2173;-77
2023/07/14 01:08:16;;;;;;;;;;;;;;;28.89;63.42;99227.38;324486;30;828;-77
2023/07/14 01:08:28;;;;;;;;;;;;;;;28.89;63.64;99232.75;317215;30;3068;-78
2023/07/14 01:09:00;;;;;;;;;;;;;;;28.87;63.54;99229.41;314192;30;3052;-78
2023/07/14 01:09:10;;;;;;;;;;;;;;;28.86;63.76;99230.44;307034;31;4504;-78
2023/07/14 01:09:20;;;;;;;;;;;;;;;28.85;63.61;99231.47;306775;31;3519;-79
2023/07/14 01:09:31;;;;;;;;;;;;;;;28.86;63.86;99235.81;307295;32;717;-77
2023/07/14 01:09:42;;;;;;;;;;;;;;;28.85;63.35;99226.06;307220;32;3695;-78
2023/07/14 01:09:53;;;;;;;;;;;;;;;28.86;63.74;99227.75;307984;32;2999;-78
2023/07/14 01:10:03;;;;;;;;;;;;;;;28.86;63.22;99230.44;306635;32;2807;-78
2023/07/14 01:10:16;;;;;;;;;;;;;;;28.86;64.00;99238.50;307329;32;1545;-78
2023/07/14 01:10:26;;;;;;;;;;;;;;;28.84;63.37;99233.31;305246;32;3104;-78
2023/07/14 01:10:36;;;;;;;;;;;;;;;28.84;63.47;99227.09;304603;32;4090;-77
2023/07/14 01:10:47;;;;;;;;;;;;;;;28.84;64.02;99232.47;305078;32;1967;-77
2023/07/14 01:10:57;;;;;;;;;;;;;;;28.85;64.05;99234.16;303294;32;4193;-77
2023/07/14 01:11:07;;;;;;;;;;;;;;;28.85;63.47;99234.16;302341;32;6495;-77
2023/07/14 01:11:17;;;;;;;;;;;;;;;28.84;63.41;99235.19;304023;32;1291;-78